sensor_id;sensor_type;location;lat;lon;timestamp;P1;durP1;ratioP1;P2;durP2;ratioP2
39858;SDS011;25528;47.810;12.960;2022-08-04T00:01:02;3.00;;;2.70;;
39858;SDS011;25528;47.810;12.960;2022-08-04T00:03:32;3.72;;;2.80;;
39858;SDS011;25528;47.810;12.960;2022-08-04T00:06:08;3.17;;;2.67;;
39858;SDS011;25528;47.810;12.960;2022-08-04T00:08:44;4.25;;;2.90;;
39858;SDS011;25528;47.810;12.960;2022-08-04T00:11:20;3.83;;;2.60;;
39858;SDS011;25528;47.810;12.960;2022-08-04T00:14:03;3.20;;;2.80;;
39858;SDS011;25528;47.810;12.960;2022-08-04T00:16:37;4.10;;;2.80;;
39858;SDS011;25528;47.810;12.960;2022-08-04T00:19:28;4.18;;;2.83;;
39858;SDS011;25528;47.810;12.960;2022-08-04T00:22:02;3.30;;;2.70;;
39858;SDS011;25528;47.810;12.960;2022-08-04T00:24:30;3.00;;;2.53;;
39858;SDS011;25528;47.810;12.960;2022-08-04T00:26:56;3.87;;;2.50;;
39858;SDS011;25528;47.810;12.960;2022-08-04T00:29:22;4.53;;;2.70;;
39858;SDS011;25528;47.810;12.960;2022-08-04T00:31:49;5.80;;;2.83;;
39858;SDS011;25528;47.810;12.960;2022-08-04T00:34:15;2.90;;;2.50;;
39858;SDS011;25528;47.810;12.960;2022-08-04T00:36:41;2.95;;;2.53;;
39858;SDS011;25528;47.810;12.960;2022-08-04T00:39:10;3.30;;;2.70;;
39858;SDS011;25528;47.810;12.960;2022-08-04T01:11:30;2.90;;;2.50;;
39858;SDS011;25528;47.810;12.960;2022-08-04T01:17:50;2.85;;;2.55;;
39858;SDS011;25528;47.810;12.960;2022-08-04T01:20:05;3.17;;;2.60;;
39858;SDS011;25528;47.810;12.960;2022-08-04T01:25:02;3.40;;;2.87;;
39858;SDS011;25528;47.810;12.960;2022-08-04T01:30:34;2.97;;;2.72;;
39858;SDS011;25528;47.810;12.960;2022-08-04T01:33:03;3.17;;;2.67;;
39858;SDS011;25528;47.810;12.960;2022-08-04T01:41:04;3.20;;;2.70;;
39858;SDS011;25528;47.810;12.960;2022-08-04T01:43:32;2.90;;;2.53;;
39858;SDS011;25528;47.810;12.960;2022-08-04T01:46:00;2.85;;;2.50;;
39858;SDS011;25528;47.810;12.960;2022-08-04T01:48:27;2.67;;;2.42;;
39858;SDS011;25528;47.810;12.960;2022-08-04T01:50:56;2.72;;;2.53;;
39858;SDS011;25528;47.810;12.960;2022-08-04T01:53:34;2.95;;;2.65;;
39858;SDS011;25528;47.810;12.960;2022-08-04T01:56:02;2.73;;;2.53;;
39858;SDS011;25528;47.810;12.960;2022-08-04T01:58:30;2.95;;;2.65;;
39858;SDS011;25528;47.810;12.960;2022-08-04T02:00:59;3.20;;;2.88;;
39858;SDS011;25528;47.810;12.960;2022-08-04T02:03:29;3.03;;;2.83;;
39858;SDS011;25528;47.810;12.960;2022-08-04T02:12:06;3.03;;;2.72;;
39858;SDS011;25528;47.810;12.960;2022-08-04T02:14:50;2.70;;;2.50;;
39858;SDS011;25528;47.810;12.960;2022-08-04T02:22:58;3.00;;;2.40;;
39858;SDS011;25528;47.810;12.960;2022-08-04T02:25:26;3.30;;;3.00;;
39858;SDS011;25528;47.810;12.960;2022-08-04T02:36:56;3.10;;;2.80;;
39858;SDS011;25528;47.810;12.960;2022-08-04T02:39:23;2.95;;;2.75;;
39858;SDS011;25528;47.810;12.960;2022-08-04T02:41:53;3.10;;;2.80;;
39858;SDS011;25528;47.810;12.960;2022-08-04T02:44:20;3.00;;;2.80;;
39858;SDS011;25528;47.810;12.960;2022-08-04T02:46:49;2.97;;;2.72;;
39858;SDS011;25528;47.810;12.960;2022-08-04T02:49:16;2.88;;;2.60;;
39858;SDS011;25528;47.810;12.960;2022-08-04T02:51:46;3.30;;;3.00;;
39858;SDS011;25528;47.810;12.960;2022-08-04T02:54:16;3.20;;;2.88;;
39858;SDS011;25528;47.810;12.960;2022-08-04T02:56:44;3.10;;;2.80;;
39858;SDS011;25528;47.810;12.960;2022-08-04T02:59:11;3.33;;;3.03;;
39858;SDS011;25528;47.810;12.960;2022-08-04T03:01:39;2.95;;;2.50;;
39858;SDS011;25528;47.810;12.960;2022-08-04T03:06:50;3.40;;;3.10;;
39858;SDS011;25528;47.810;12.960;2022-08-04T03:18:24;6.70;;;2.78;;
39858;SDS011;25528;47.810;12.960;2022-08-04T03:24:22;7.05;;;3.13;;
39858;SDS011;25528;47.810;12.960;2022-08-04T03:29:58;4.10;;;2.70;;
39858;SDS011;25528;47.810;12.960;2022-08-04T03:32:35;8.07;;;2.92;;
39858;SDS011;25528;47.810;12.960;2022-08-04T03:57:35;5.53;;;2.90;;
39858;SDS011;25528;47.810;12.960;2022-08-04T04:00:13;5.07;;;3.00;;
39858;SDS011;25528;47.810;12.960;2022-08-04T04:20:09;3.58;;;2.80;;
39858;SDS011;25528;47.810;12.960;2022-08-04T04:22:53;5.22;;;2.83;;
39858;SDS011;25528;47.810;12.960;2022-08-04T04:33:47;5.80;;;2.95;;
39858;SDS011;25528;47.810;12.960;2022-08-04T04:36:23;9.70;;;3.13;;
39858;SDS011;25528;47.810;12.960;2022-08-04T04:39:25;5.20;;;3.10;;
39858;SDS011;25528;47.810;12.960;2022-08-04T04:56:18;8.50;;;3.72;;
39858;SDS011;25528;47.810;12.960;2022-08-04T04:58:51;8.50;;;3.97;;
39858;SDS011;25528;47.810;12.960;2022-08-04T05:04:06;6.35;;;3.70;;
39858;SDS011;25528;47.810;12.960;2022-08-04T05:09:27;6.35;;;3.53;;
39858;SDS011;25528;47.810;12.960;2022-08-04T05:14:29;6.63;;;3.47;;
39858;SDS011;25528;47.810;12.960;2022-08-04T05:22:20;5.95;;;3.42;;
39858;SDS011;25528;47.810;12.960;2022-08-04T05:24:50;6.07;;;3.60;;
39858;SDS011;25528;47.810;12.960;2022-08-04T05:27:27;6.25;;;3.50;;
39858;SDS011;25528;47.810;12.960;2022-08-04T05:30:03;5.55;;;3.28;;
39858;SDS011;25528;47.810;12.960;2022-08-04T05:32:44;6.00;;;3.33;;
39858;SDS011;25528;47.810;12.960;2022-08-04T05:38:13;6.13;;;3.20;;
39858;SDS011;25528;47.810;12.960;2022-08-04T05:40:43;5.78;;;3.50;;
39858;SDS011;25528;47.810;12.960;2022-08-04T05:43:10;5.15;;;3.28;;
39858;SDS011;25528;47.810;12.960;2022-08-04T05:45:37;6.05;;;3.20;;
39858;SDS011;25528;47.810;12.960;2022-08-04T05:48:05;5.03;;;3.20;;
39858;SDS011;25528;47.810;12.960;2022-08-04T05:50:33;5.80;;;3.03;;
39858;SDS011;25528;47.810;12.960;2022-08-04T05:52:59;3.95;;;3.10;;
39858;SDS011;25528;47.810;12.960;2022-08-04T05:55:27;4.37;;;3.03;;
39858;SDS011;25528;47.810;12.960;2022-08-04T05:57:54;3.47;;;3.10;;
39858;SDS011;25528;47.810;12.960;2022-08-04T06:00:20;4.70;;;3.17;;
39858;SDS011;25528;47.810;12.960;2022-08-04T06:02:48;4.20;;;3.20;;
39858;SDS011;25528;47.810;12.960;2022-08-04T06:05:16;4.90;;;3.15;;
39858;SDS011;25528;47.810;12.960;2022-08-04T06:07:43;6.37;;;3.40;;
39858;SDS011;25528;47.810;12.960;2022-08-04T06:10:09;5.38;;;3.40;;
39858;SDS011;25528;47.810;12.960;2022-08-04T06:12:37;6.57;;;3.65;;
39858;SDS011;25528;47.810;12.960;2022-08-04T06:15:08;6.18;;;3.30;;
39858;SDS011;25528;47.810;12.960;2022-08-04T06:17:41;5.97;;;3.58;;
39858;SDS011;25528;47.810;12.960;2022-08-04T06:20:19;5.80;;;3.55;;
39858;SDS011;25528;47.810;12.960;2022-08-04T06:22:49;6.28;;;3.80;;
39858;SDS011;25528;47.810;12.960;2022-08-04T06:25:19;6.10;;;3.70;;
39858;SDS011;25528;47.810;12.960;2022-08-04T06:27:48;6.93;;;3.63;;
39858;SDS011;25528;47.810;12.960;2022-08-04T06:30:15;4.80;;;3.57;;
39858;SDS011;25528;47.810;12.960;2022-08-04T06:32:43;5.45;;;3.40;;
39858;SDS011;25528;47.810;12.960;2022-08-04T06:35:19;5.47;;;3.60;;
39858;SDS011;25528;47.810;12.960;2022-08-04T06:37:46;5.47;;;3.45;;
39858;SDS011;25528;47.810;12.960;2022-08-04T06:40:12;5.20;;;3.20;;
39858;SDS011;25528;47.810;12.960;2022-08-04T06:42:39;5.28;;;3.58;;
39858;SDS011;25528;47.810;12.960;2022-08-04T06:45:06;4.47;;;3.17;;
39858;SDS011;25528;47.810;12.960;2022-08-04T06:47:34;5.40;;;3.30;;
39858;SDS011;25528;47.810;12.960;2022-08-04T06:50:03;4.80;;;3.10;;
39858;SDS011;25528;47.810;12.960;2022-08-04T06:52:29;4.90;;;3.00;;
39858;SDS011;25528;47.810;12.960;2022-08-04T06:54:55;4.97;;;3.00;;
39858;SDS011;25528;47.810;12.960;2022-08-04T06:57:25;5.20;;;3.28;;
39858;SDS011;25528;47.810;12.960;2022-08-04T06:59:53;4.15;;;3.33;;
39858;SDS011;25528;47.810;12.960;2022-08-04T07:02:26;4.82;;;3.30;;
39858;SDS011;25528;47.810;12.960;2022-08-04T07:04:54;5.20;;;3.40;;
39858;SDS011;25528;47.810;12.960;2022-08-04T07:07:20;4.13;;;3.13;;
39858;SDS011;25528;47.810;12.960;2022-08-04T07:09:49;5.10;;;3.03;;
39858;SDS011;25528;47.810;12.960;2022-08-04T07:12:15;4.82;;;3.10;;
39858;SDS011;25528;47.810;12.960;2022-08-04T07:14:45;3.40;;;3.00;;
39858;SDS011;25528;47.810;12.960;2022-08-04T07:17:12;4.30;;;3.00;;
39858;SDS011;25528;47.810;12.960;2022-08-04T07:19:39;3.72;;;2.90;;
39858;SDS011;25528;47.810;12.960;2022-08-04T07:22:06;4.13;;;2.90;;
39858;SDS011;25528;47.810;12.960;2022-08-04T07:24:35;4.75;;;3.13;;
39858;SDS011;25528;47.810;12.960;2022-08-04T07:27:02;3.72;;;3.10;;
39858;SDS011;25528;47.810;12.960;2022-08-04T07:29:29;4.15;;;2.83;;
39858;SDS011;25528;47.810;12.960;2022-08-04T07:31:55;3.70;;;3.00;;
39858;SDS011;25528;47.810;12.960;2022-08-04T07:34:23;4.20;;;2.87;;
39858;SDS011;25528;47.810;12.960;2022-08-04T07:36:51;3.72;;;2.85;;
39858;SDS011;25528;47.810;12.960;2022-08-04T07:39:19;3.70;;;2.70;;
39858;SDS011;25528;47.810;12.960;2022-08-04T07:41:46;3.58;;;2.47;;
39858;SDS011;25528;47.810;12.960;2022-08-04T07:44:13;3.58;;;2.80;;
39858;SDS011;25528;47.810;12.960;2022-08-04T07:46:40;4.53;;;2.97;;
39858;SDS011;25528;47.810;12.960;2022-08-04T07:49:06;3.80;;;2.80;;
39858;SDS011;25528;47.810;12.960;2022-08-04T07:51:33;4.55;;;3.05;;
39858;SDS011;25528;47.810;12.960;2022-08-04T07:54:00;3.42;;;3.00;;
39858;SDS011;25528;47.810;12.960;2022-08-04T07:56:32;5.55;;;3.20;;
39858;SDS011;25528;47.810;12.960;2022-08-04T07:58:59;4.83;;;3.30;;
39858;SDS011;25528;47.810;12.960;2022-08-04T08:01:25;5.22;;;3.50;;
39858;SDS011;25528;47.810;12.960;2022-08-04T08:03:52;4.45;;;3.13;;
39858;SDS011;25528;47.810;12.960;2022-08-04T08:06:20;5.22;;;3.30;;
39858;SDS011;25528;47.810;12.960;2022-08-04T08:08:47;4.50;;;3.28;;
39858;SDS011;25528;47.810;12.960;2022-08-04T08:11:13;4.75;;;3.10;;
39858;SDS011;25528;47.810;12.960;2022-08-04T08:13:40;5.65;;;3.58;;
39858;SDS011;25528;47.810;12.960;2022-08-04T08:16:07;5.70;;;3.60;;
39858;SDS011;25528;47.810;12.960;2022-08-04T08:18:33;6.40;;;3.53;;
39858;SDS011;25528;47.810;12.960;2022-08-04T08:20:59;4.40;;;3.45;;
39858;SDS011;25528;47.810;12.960;2022-08-04T08:23:25;7.05;;;3.65;;
39858;SDS011;25528;47.810;12.960;2022-08-04T08:25:55;6.93;;;3.70;;
39858;SDS011;25528;47.810;12.960;2022-08-04T08:28:22;6.65;;;3.53;;
39858;SDS011;25528;47.810;12.960;2022-08-04T08:30:48;9.25;;;4.00;;
39858;SDS011;25528;47.810;12.960;2022-08-04T08:33:14;8.27;;;3.77;;
39858;SDS011;25528;47.810;12.960;2022-08-04T08:35:46;8.52;;;4.65;;
39858;SDS011;25528;47.810;12.960;2022-08-04T08:49:33;13.23;;;4.70;;
39858;SDS011;25528;47.810;12.960;2022-08-04T09:03:59;21.73;;;5.87;;
39858;SDS011;25528;47.810;12.960;2022-08-04T09:12:21;16.60;;;5.60;;
39858;SDS011;25528;47.810;12.960;2022-08-04T09:15:12;18.17;;;5.70;;
39858;SDS011;25528;47.810;12.960;2022-08-04T09:17:54;14.93;;;5.88;;
39858;SDS011;25528;47.810;12.960;2022-08-04T09:28:50;11.25;;;5.28;;
39858;SDS011;25528;47.810;12.960;2022-08-04T09:31:20;12.85;;;5.22;;
39858;SDS011;25528;47.810;12.960;2022-08-04T09:36:33;11.80;;;5.10;;
39858;SDS011;25528;47.810;12.960;2022-08-04T09:39:18;10.52;;;4.50;;
39858;SDS011;25528;47.810;12.960;2022-08-04T09:42:00;11.82;;;5.40;;
39858;SDS011;25528;47.810;12.960;2022-08-04T09:44:59;10.60;;;5.22;;
39858;SDS011;25528;47.810;12.960;2022-08-04T10:00:50;9.98;;;4.80;;
39858;SDS011;25528;47.810;12.960;2022-08-04T10:03:22;9.30;;;4.37;;
39858;SDS011;25528;47.810;12.960;2022-08-04T10:05:55;8.55;;;4.28;;
39858;SDS011;25528;47.810;12.960;2022-08-04T10:08:35;8.90;;;4.68;;
39858;SDS011;25528;47.810;12.960;2022-08-04T10:11:09;8.10;;;4.30;;
39858;SDS011;25528;47.810;12.960;2022-08-04T10:13:43;9.13;;;4.50;;
39858;SDS011;25528;47.810;12.960;2022-08-04T10:19:26;9.52;;;4.47;;
39858;SDS011;25528;47.810;12.960;2022-08-04T10:22:14;10.80;;;4.25;;
39858;SDS011;25528;47.810;12.960;2022-08-04T10:27:54;8.87;;;4.30;;
39858;SDS011;25528;47.810;12.960;2022-08-04T10:30:24;6.95;;;4.00;;
39858;SDS011;25528;47.810;12.960;2022-08-04T10:32:54;8.57;;;3.72;;
39858;SDS011;25528;47.810;12.960;2022-08-04T10:35:27;8.30;;;3.97;;
39858;SDS011;25528;47.810;12.960;2022-08-04T10:41:11;9.00;;;3.80;;
39858;SDS011;25528;47.810;12.960;2022-08-04T10:43:42;8.95;;;4.03;;
39858;SDS011;25528;47.810;12.960;2022-08-04T10:46:30;8.85;;;4.00;;
39858;SDS011;25528;47.810;12.960;2022-08-04T10:49:03;10.52;;;4.18;;
39858;SDS011;25528;47.810;12.960;2022-08-04T10:51:58;10.27;;;4.30;;
39858;SDS011;25528;47.810;12.960;2022-08-04T10:54:28;12.80;;;4.38;;
39858;SDS011;25528;47.810;12.960;2022-08-04T10:56:58;11.30;;;4.53;;
39858;SDS011;25528;47.810;12.960;2022-08-04T10:59:38;7.10;;;4.40;;
39858;SDS011;25528;47.810;12.960;2022-08-04T11:02:19;10.10;;;4.37;;
39858;SDS011;25528;47.810;12.960;2022-08-04T11:07:56;8.48;;;4.20;;
39858;SDS011;25528;47.810;12.960;2022-08-04T11:10:29;9.02;;;4.32;;
39858;SDS011;25528;47.810;12.960;2022-08-04T11:13:03;9.13;;;4.07;;
39858;SDS011;25528;47.810;12.960;2022-08-04T11:15:35;11.52;;;4.10;;
39858;SDS011;25528;47.810;12.960;2022-08-04T11:18:05;12.27;;;4.10;;
39858;SDS011;25528;47.810;12.960;2022-08-04T11:20:39;14.63;;;4.60;;
39858;SDS011;25528;47.810;12.960;2022-08-04T11:23:14;16.08;;;4.60;;
39858;SDS011;25528;47.810;12.960;2022-08-04T11:28:48;12.80;;;4.70;;
39858;SDS011;25528;47.810;12.960;2022-08-04T11:31:39;13.95;;;4.10;;
39858;SDS011;25528;47.810;12.960;2022-08-04T11:36:40;10.43;;;4.27;;
39858;SDS011;25528;47.810;12.960;2022-08-04T11:52:47;6.38;;;3.70;;
39858;SDS011;25528;47.810;12.960;2022-08-04T11:55:16;7.22;;;3.60;;
39858;SDS011;25528;47.810;12.960;2022-08-04T11:57:46;9.37;;;3.73;;
39858;SDS011;25528;47.810;12.960;2022-08-04T12:00:13;9.98;;;4.15;;
39858;SDS011;25528;47.810;12.960;2022-08-04T12:05:40;15.63;;;4.90;;
39858;SDS011;25528;47.810;12.960;2022-08-04T12:08:28;26.37;;;8.93;;
39858;SDS011;25528;47.810;12.960;2022-08-04T12:21:30;27.67;;;10.27;;
39858;SDS011;25528;47.810;12.960;2022-08-04T12:24:04;24.50;;;8.68;;
39858;SDS011;25528;47.810;12.960;2022-08-04T12:26:51;18.63;;;7.60;;
39858;SDS011;25528;47.810;12.960;2022-08-04T12:29:22;21.52;;;6.93;;
39858;SDS011;25528;47.810;12.960;2022-08-04T12:31:56;16.88;;;6.15;;
39858;SDS011;25528;47.810;12.960;2022-08-04T12:34:31;17.42;;;6.65;;
39858;SDS011;25528;47.810;12.960;2022-08-04T12:39:59;13.40;;;5.43;;
39858;SDS011;25528;47.810;12.960;2022-08-04T12:45:11;13.30;;;5.63;;
39858;SDS011;25528;47.810;12.960;2022-08-04T12:47:39;12.20;;;5.30;;
39858;SDS011;25528;47.810;12.960;2022-08-04T12:50:07;14.25;;;5.88;;
39858;SDS011;25528;47.810;12.960;2022-08-04T12:52:46;13.68;;;5.25;;
39858;SDS011;25528;47.810;12.960;2022-08-04T12:55:16;13.77;;;5.53;;
39858;SDS011;25528;47.810;12.960;2022-08-04T12:57:44;13.38;;;5.43;;
39858;SDS011;25528;47.810;12.960;2022-08-04T13:00:12;12.65;;;5.10;;
39858;SDS011;25528;47.810;12.960;2022-08-04T13:02:49;13.20;;;5.68;;
39858;SDS011;25528;47.810;12.960;2022-08-04T13:05:16;17.65;;;6.10;;
39858;SDS011;25528;47.810;12.960;2022-08-04T13:07:46;20.83;;;6.18;;
39858;SDS011;25528;47.810;12.960;2022-08-04T13:10:16;14.45;;;5.70;;
39858;SDS011;25528;47.810;12.960;2022-08-04T13:12:50;12.88;;;4.93;;
39858;SDS011;25528;47.810;12.960;2022-08-04T13:15:20;12.73;;;4.77;;
39858;SDS011;25528;47.810;12.960;2022-08-04T13:17:58;11.00;;;5.28;;
39858;SDS011;25528;47.810;12.960;2022-08-04T13:20:36;13.70;;;5.17;;
39858;SDS011;25528;47.810;12.960;2022-08-04T13:23:04;14.05;;;5.03;;
39858;SDS011;25528;47.810;12.960;2022-08-04T13:25:36;11.85;;;5.00;;
39858;SDS011;25528;47.810;12.960;2022-08-04T13:28:07;15.65;;;5.32;;
39858;SDS011;25528;47.810;12.960;2022-08-04T13:30:44;14.23;;;5.07;;
39858;SDS011;25528;47.810;12.960;2022-08-04T13:33:11;13.18;;;4.97;;
39858;SDS011;25528;47.810;12.960;2022-08-04T13:35:43;14.95;;;5.43;;
39858;SDS011;25528;47.810;12.960;2022-08-04T13:38:10;13.52;;;5.22;;
39858;SDS011;25528;47.810;12.960;2022-08-04T13:40:38;13.45;;;5.00;;
39858;SDS011;25528;47.810;12.960;2022-08-04T13:43:06;11.85;;;5.20;;
39858;SDS011;25528;47.810;12.960;2022-08-04T13:45:34;9.68;;;4.70;;
39858;SDS011;25528;47.810;12.960;2022-08-04T13:48:02;10.40;;;4.57;;
39858;SDS011;25528;47.810;12.960;2022-08-04T13:50:29;14.93;;;4.72;;
39858;SDS011;25528;47.810;12.960;2022-08-04T13:52:57;12.52;;;4.72;;
39858;SDS011;25528;47.810;12.960;2022-08-04T13:55:25;12.85;;;4.65;;
39858;SDS011;25528;47.810;12.960;2022-08-04T13:57:58;12.00;;;4.70;;
39858;SDS011;25528;47.810;12.960;2022-08-04T14:00:27;12.88;;;4.78;;
39858;SDS011;25528;47.810;12.960;2022-08-04T14:03:09;10.73;;;4.10;;
39858;SDS011;25528;47.810;12.960;2022-08-04T14:05:39;13.80;;;4.80;;
39858;SDS011;25528;47.810;12.960;2022-08-04T14:08:11;12.13;;;4.60;;
39858;SDS011;25528;47.810;12.960;2022-08-04T14:10:41;11.38;;;4.60;;
39858;SDS011;25528;47.810;12.960;2022-08-04T14:13:17;13.65;;;4.47;;
39858;SDS011;25528;47.810;12.960;2022-08-04T14:15:53;11.88;;;4.60;;
39858;SDS011;25528;47.810;12.960;2022-08-04T14:18:22;11.20;;;4.45;;
39858;SDS011;25528;47.810;12.960;2022-08-04T14:29:10;21.23;;;5.47;;
39858;SDS011;25528;47.810;12.960;2022-08-04T14:31:37;21.95;;;5.50;;
39858;SDS011;25528;47.810;12.960;2022-08-04T14:34:04;23.75;;;5.70;;
39858;SDS011;25528;47.810;12.960;2022-08-04T14:36:42;28.45;;;5.97;;
39858;SDS011;25528;47.810;12.960;2022-08-04T14:39:08;23.08;;;5.53;;
39858;SDS011;25528;47.810;12.960;2022-08-04T14:41:44;28.58;;;5.88;;
39858;SDS011;25528;47.810;12.960;2022-08-04T14:44:14;29.98;;;5.43;;
39858;SDS011;25528;47.810;12.960;2022-08-04T14:46:50;24.55;;;5.63;;
39858;SDS011;25528;47.810;12.960;2022-08-04T14:49:17;29.02;;;5.35;;
39858;SDS011;25528;47.810;12.960;2022-08-04T14:52:04;30.60;;;5.60;;
39858;SDS011;25528;47.810;12.960;2022-08-04T14:54:30;24.20;;;5.60;;
39858;SDS011;25528;47.810;12.960;2022-08-04T14:57:01;18.85;;;4.80;;
39858;SDS011;25528;47.810;12.960;2022-08-04T14:59:45;15.32;;;4.65;;
39858;SDS011;25528;47.810;12.960;2022-08-04T15:02:12;16.70;;;5.07;;
39858;SDS011;25528;47.810;12.960;2022-08-04T15:04:40;17.08;;;4.75;;
39858;SDS011;25528;47.810;12.960;2022-08-04T15:07:08;16.08;;;5.15;;
39858;SDS011;25528;47.810;12.960;2022-08-04T15:09:34;13.52;;;4.47;;
39858;SDS011;25528;47.810;12.960;2022-08-04T15:12:00;10.77;;;4.18;;
39858;SDS011;25528;47.810;12.960;2022-08-04T15:14:28;12.75;;;4.43;;
39858;SDS011;25528;47.810;12.960;2022-08-04T15:16:54;11.10;;;4.25;;
39858;SDS011;25528;47.810;12.960;2022-08-04T15:19:19;8.90;;;3.87;;
39858;SDS011;25528;47.810;12.960;2022-08-04T15:21:46;10.00;;;4.15;;
39858;SDS011;25528;47.810;12.960;2022-08-04T15:24:13;8.82;;;4.07;;
39858;SDS011;25528;47.810;12.960;2022-08-04T15:26:43;9.57;;;4.10;;
39858;SDS011;25528;47.810;12.960;2022-08-04T15:31:47;8.50;;;4.20;;
39858;SDS011;25528;47.810;12.960;2022-08-04T15:34:14;8.32;;;3.58;;
39858;SDS011;25528;47.810;12.960;2022-08-04T15:36:47;8.40;;;3.60;;
39858;SDS011;25528;47.810;12.960;2022-08-04T15:39:27;8.07;;;4.00;;
39858;SDS011;25528;47.810;12.960;2022-08-04T15:45:09;7.85;;;3.65;;
39858;SDS011;25528;47.810;12.960;2022-08-04T15:50:25;7.22;;;3.67;;
39858;SDS011;25528;47.810;12.960;2022-08-04T15:58:08;5.40;;;3.35;;
39858;SDS011;25528;47.810;12.960;2022-08-04T16:05:59;7.13;;;3.58;;
39858;SDS011;25528;47.810;12.960;2022-08-04T16:08:30;6.75;;;3.55;;
39858;SDS011;25528;47.810;12.960;2022-08-04T16:11:38;6.78;;;3.60;;
39858;SDS011;25528;47.810;12.960;2022-08-04T16:14:07;7.43;;;3.78;;
39858;SDS011;25528;47.810;12.960;2022-08-04T16:19:09;9.35;;;3.60;;
39858;SDS011;25528;47.810;12.960;2022-08-04T16:21:48;23.23;;;6.28;;
39858;SDS011;25528;47.810;12.960;2022-08-04T16:24:26;72.03;;;17.10;;
39858;SDS011;25528;47.810;12.960;2022-08-04T16:27:06;138.85;;;40.22;;
39858;SDS011;25528;47.810;12.960;2022-08-04T16:29:37;126.03;;;34.67;;
39858;SDS011;25528;47.810;12.960;2022-08-04T16:34:40;137.57;;;36.47;;
39858;SDS011;25528;47.810;12.960;2022-08-04T16:37:10;142.65;;;37.58;;
39858;SDS011;25528;47.810;12.960;2022-08-04T16:39:36;137.27;;;37.23;;
39858;SDS011;25528;47.810;12.960;2022-08-04T16:45:00;144.13;;;40.83;;
39858;SDS011;25528;47.810;12.960;2022-08-04T16:50:11;107.57;;;32.03;;
39858;SDS011;25528;47.810;12.960;2022-08-04T16:52:43;105.93;;;29.83;;
39858;SDS011;25528;47.810;12.960;2022-08-04T16:55:10;98.53;;;29.40;;
39858;SDS011;25528;47.810;12.960;2022-08-04T16:57:39;86.95;;;27.20;;
39858;SDS011;25528;47.810;12.960;2022-08-04T17:00:05;82.18;;;25.58;;
39858;SDS011;25528;47.810;12.960;2022-08-04T17:02:32;72.55;;;23.52;;
39858;SDS011;25528;47.810;12.960;2022-08-04T17:04:59;69.23;;;22.67;;
39858;SDS011;25528;47.810;12.960;2022-08-04T17:07:25;58.53;;;21.02;;
39858;SDS011;25528;47.810;12.960;2022-08-04T17:09:51;53.07;;;18.37;;
39858;SDS011;25528;47.810;12.960;2022-08-04T17:12:16;43.05;;;16.05;;
39858;SDS011;25528;47.810;12.960;2022-08-04T17:14:42;44.83;;;15.60;;
39858;SDS011;25528;47.810;12.960;2022-08-04T17:17:08;38.67;;;14.37;;
39858;SDS011;25528;47.810;12.960;2022-08-04T17:19:34;37.95;;;14.27;;
39858;SDS011;25528;47.810;12.960;2022-08-04T17:22:04;34.35;;;12.23;;
39858;SDS011;25528;47.810;12.960;2022-08-04T17:24:33;36.03;;;12.73;;
39858;SDS011;25528;47.810;12.960;2022-08-04T17:27:02;28.95;;;12.02;;
39858;SDS011;25528;47.810;12.960;2022-08-04T17:29:28;30.67;;;11.00;;
39858;SDS011;25528;47.810;12.960;2022-08-04T17:31:53;27.23;;;10.57;;
39858;SDS011;25528;47.810;12.960;2022-08-04T17:34:19;28.10;;;9.90;;
39858;SDS011;25528;47.810;12.960;2022-08-04T17:36:46;18.88;;;8.55;;
39858;SDS011;25528;47.810;12.960;2022-08-04T17:39:16;21.55;;;8.98;;
39858;SDS011;25528;47.810;12.960;2022-08-04T17:41:45;21.45;;;8.68;;
39858;SDS011;25528;47.810;12.960;2022-08-04T17:44:11;21.95;;;8.00;;
39858;SDS011;25528;47.810;12.960;2022-08-04T17:46:38;21.77;;;8.10;;
39858;SDS011;25528;47.810;12.960;2022-08-04T17:51:54;18.38;;;7.50;;
39858;SDS011;25528;47.810;12.960;2022-08-04T17:54:30;17.40;;;6.80;;
39858;SDS011;25528;47.810;12.960;2022-08-04T17:56:58;15.70;;;6.43;;
39858;SDS011;25528;47.810;12.960;2022-08-04T17:59:26;11.55;;;5.70;;
39858;SDS011;25528;47.810;12.960;2022-08-04T18:02:06;12.38;;;5.60;;
39858;SDS011;25528;47.810;12.960;2022-08-04T18:15:00;10.18;;;5.40;;
39858;SDS011;25528;47.810;12.960;2022-08-04T18:17:33;9.95;;;5.38;;
39858;SDS011;25528;47.810;12.960;2022-08-04T18:20:06;9.35;;;5.00;;
39858;SDS011;25528;47.810;12.960;2022-08-04T18:22:38;8.70;;;5.05;;
39858;SDS011;25528;47.810;12.960;2022-08-04T18:25:06;10.50;;;5.20;;
39858;SDS011;25528;47.810;12.960;2022-08-04T18:27:33;10.43;;;5.50;;
39858;SDS011;25528;47.810;12.960;2022-08-04T18:29:59;10.43;;;4.97;;
39858;SDS011;25528;47.810;12.960;2022-08-04T18:32:26;11.82;;;5.25;;
39858;SDS011;25528;47.810;12.960;2022-08-04T18:34:53;11.30;;;5.60;;
39858;SDS011;25528;47.810;12.960;2022-08-04T18:37:19;12.35;;;5.78;;
39858;SDS011;25528;47.810;12.960;2022-08-04T18:39:45;10.70;;;5.30;;
39858;SDS011;25528;47.810;12.960;2022-08-04T18:42:12;11.15;;;5.15;;
39858;SDS011;25528;47.810;12.960;2022-08-04T18:44:38;11.23;;;5.05;;
39858;SDS011;25528;47.810;12.960;2022-08-04T18:47:03;9.05;;;5.28;;
39858;SDS011;25528;47.810;12.960;2022-08-04T18:49:30;11.18;;;5.28;;
39858;SDS011;25528;47.810;12.960;2022-08-04T18:51:56;9.90;;;5.10;;
39858;SDS011;25528;47.810;12.960;2022-08-04T18:54:22;7.88;;;4.53;;
39858;SDS011;25528;47.810;12.960;2022-08-04T18:56:49;8.25;;;4.80;;
39858;SDS011;25528;47.810;12.960;2022-08-04T18:59:16;9.02;;;4.80;;
39858;SDS011;25528;47.810;12.960;2022-08-04T19:01:42;7.83;;;4.60;;
39858;SDS011;25528;47.810;12.960;2022-08-04T19:04:08;9.60;;;4.45;;
39858;SDS011;25528;47.810;12.960;2022-08-04T19:06:34;9.57;;;4.40;;
39858;SDS011;25528;47.810;12.960;2022-08-04T19:09:01;12.45;;;4.47;;
39858;SDS011;25528;47.810;12.960;2022-08-04T19:11:28;11.40;;;4.38;;
39858;SDS011;25528;47.810;12.960;2022-08-04T19:13:54;9.25;;;4.18;;
39858;SDS011;25528;47.810;12.960;2022-08-04T19:16:20;10.50;;;4.25;;
39858;SDS011;25528;47.810;12.960;2022-08-04T19:18:45;6.43;;;4.20;;
39858;SDS011;25528;47.810;12.960;2022-08-04T19:21:11;7.10;;;3.93;;
39858;SDS011;25528;47.810;12.960;2022-08-04T19:23:37;9.23;;;4.60;;
39858;SDS011;25528;47.810;12.960;2022-08-04T19:26:03;18.80;;;5.07;;
39858;SDS011;25528;47.810;12.960;2022-08-04T19:28:30;15.15;;;4.65;;
39858;SDS011;25528;47.810;12.960;2022-08-04T19:30:56;16.00;;;4.35;;
39858;SDS011;25528;47.810;12.960;2022-08-04T19:33:22;11.43;;;4.53;;
39858;SDS011;25528;47.810;12.960;2022-08-04T19:35:48;12.90;;;4.70;;
39858;SDS011;25528;47.810;12.960;2022-08-04T19:38:14;11.10;;;4.30;;
39858;SDS011;25528;47.810;12.960;2022-08-04T19:40:41;11.88;;;4.20;;
39858;SDS011;25528;47.810;12.960;2022-08-04T19:43:07;14.77;;;4.70;;
39858;SDS011;25528;47.810;12.960;2022-08-04T19:45:33;10.35;;;4.40;;
39858;SDS011;25528;47.810;12.960;2022-08-04T19:47:59;9.03;;;4.30;;
39858;SDS011;25528;47.810;12.960;2022-08-04T19:50:25;9.50;;;4.47;;
39858;SDS011;25528;47.810;12.960;2022-08-04T19:52:51;9.18;;;4.63;;
39858;SDS011;25528;47.810;12.960;2022-08-04T19:55:17;8.95;;;4.55;;
39858;SDS011;25528;47.810;12.960;2022-08-04T19:57:43;9.20;;;4.90;;
39858;SDS011;25528;47.810;12.960;2022-08-04T20:00:09;9.73;;;4.60;;
39858;SDS011;25528;47.810;12.960;2022-08-04T20:02:38;8.07;;;4.55;;
39858;SDS011;25528;47.810;12.960;2022-08-04T20:05:04;8.18;;;4.90;;